Nefterudovoz-47m — UFFP — position and weather

sailwx.info

Track history (hours):
 
Tides and Currents Weather Stations Pressure Air Temp Water Temp Dewpoint Dewpoint Depression Visibility Wind Speed Wind Dir Waves Ship Positions

Nefterudovoz-47m

Last reported at 2017-Jan-15 16:07 UTC. Time now 2017-Jan-24 23:24 UTC.
Position N 45°30' E 036°48'.
Warning: this ship's position is 9 days out of date.

Length 119 m; draft 2.8 m.

Type: Cargo ship. MMSI: 273347800.

Date/timePositionNaut miles runAvg speedWind from/ knotsBaromVisibWave heightAir tempDewpointWater temp
2017-Jan-15 16:07N 45°30' E 036°48'5 8.1
2017-Jan-15 15:33N 45°26' E 036°44'7 7.5
2017-Jan-15 14:34N 45°20' E 036°37'7 6.8
2017-Jan-15 13:33N 45°17' E 036°29'4 3.8
2017-Jan-15 12:33N 45°13' E 036°30'0 0.2
2017-Jan-15 11:33N 45°13' E 036°31'0 0.0
2017-Jan-15 10:33N 45°13' E 036°31'0 0.2
2017-Jan-15 09:30N 45°13' E 036°30'6 6.0
2017-Jan-15 08:29N 45°07' E 036°30'  
Track history (hours):
 
Tides and Currents Weather Stations Pressure Air Temp Water Temp Dewpoint Dewpoint Depression Visibility Wind Speed Wind Dir Waves Ship Positions

Nefterudovoz-47m

Last reported at 2017-Jan-15 16:07 UTC. Time now 2017-Jan-24 23:24 UTC.
Position N 45°30' E 036°48'.
Warning: this ship's position is 9 days out of date.

Length 119 m; draft 2.8 m.

Type: Cargo ship. MMSI: 273347800.

Date/timePositionNaut miles runAvg speedWind from/ knotsBaromVisibWave heightAir tempDewpointWater temp
2017-Jan-15 16:07N 45°30' E 036°48'5 8.1
2017-Jan-15 15:33N 45°26' E 036°44'7 7.5
2017-Jan-15 14:34N 45°20' E 036°37'7 6.8
2017-Jan-15 13:33N 45°17' E 036°29'4 3.8
2017-Jan-15 12:33N 45°13' E 036°30'0 0.2
2017-Jan-15 11:33N 45°13' E 036°31'0 0.0
2017-Jan-15 10:33N 45°13' E 036°31'0 0.2
2017-Jan-15 09:30N 45°13' E 036°30'6 6.0
2017-Jan-15 08:29N 45°07' E 036°30'  

Dump ship's entire track history